sensor_id;sensor_type;location;lat;lon;timestamp;P1;durP1;ratioP1;P2;durP2;ratioP2
51943;SDS011;37969;53.132;6.370;2022-08-19T00:01:41;12.43;;;9.20;;
51943;SDS011;37969;53.132;6.370;2022-08-19T00:04:08;11.80;;;9.60;;
51943;SDS011;37969;53.132;6.370;2022-08-19T00:06:37;10.30;;;8.75;;
51943;SDS011;37969;53.132;6.370;2022-08-19T00:09:09;9.32;;;7.93;;
51943;SDS011;37969;53.132;6.370;2022-08-19T00:11:38;10.73;;;9.07;;
51943;SDS011;37969;53.132;6.370;2022-08-19T00:14:07;10.23;;;8.95;;
51943;SDS011;37969;53.132;6.370;2022-08-19T00:16:41;9.05;;;8.13;;
51943;SDS011;37969;53.132;6.370;2022-08-19T00:19:10;9.75;;;6.90;;
51943;SDS011;37969;53.132;6.370;2022-08-19T00:21:38;8.85;;;6.53;;
51943;SDS011;37969;53.132;6.370;2022-08-19T00:26:37;7.50;;;6.80;;
51943;SDS011;37969;53.132;6.370;2022-08-19T00:29:06;6.25;;;5.75;;
51943;SDS011;37969;53.132;6.370;2022-08-19T00:31:35;6.18;;;5.57;;
51943;SDS011;37969;53.132;6.370;2022-08-19T00:34:02;7.00;;;5.55;;
51943;SDS011;37969;53.132;6.370;2022-08-19T00:36:30;5.30;;;4.90;;
51943;SDS011;37969;53.132;6.370;2022-08-19T00:38:58;6.78;;;5.18;;
51943;SDS011;37969;53.132;6.370;2022-08-19T00:41:24;6.10;;;5.60;;
51943;SDS011;37969;53.132;6.370;2022-08-19T00:44:02;5.50;;;5.10;;
51943;SDS011;37969;53.132;6.370;2022-08-19T00:46:29;8.50;;;6.10;;
51943;SDS011;37969;53.132;6.370;2022-08-19T00:48:56;8.05;;;7.22;;
51943;SDS011;37969;53.132;6.370;2022-08-19T00:51:24;10.77;;;8.63;;
51943;SDS011;37969;53.132;6.370;2022-08-19T00:53:54;13.75;;;10.32;;
51943;SDS011;37969;53.132;6.370;2022-08-19T00:56:23;10.25;;;7.75;;
51943;SDS011;37969;53.132;6.370;2022-08-19T00:58:52;11.52;;;8.25;;
51943;SDS011;37969;53.132;6.370;2022-08-19T01:01:19;9.88;;;8.65;;
51943;SDS011;37969;53.132;6.370;2022-08-19T01:03:49;13.35;;;11.98;;
51943;SDS011;37969;53.132;6.370;2022-08-19T01:06:19;13.10;;;11.73;;
51943;SDS011;37969;53.132;6.370;2022-08-19T01:08:45;9.88;;;8.98;;
51943;SDS011;37969;53.132;6.370;2022-08-19T01:11:14;7.70;;;7.00;;
51943;SDS011;37969;53.132;6.370;2022-08-19T01:13:44;8.80;;;7.78;;
51943;SDS011;37969;53.132;6.370;2022-08-19T01:16:12;11.77;;;9.02;;
51943;SDS011;37969;53.132;6.370;2022-08-19T01:18:41;6.28;;;5.70;;
51943;SDS011;37969;53.132;6.370;2022-08-19T01:21:21;5.07;;;4.68;;
51943;SDS011;37969;53.132;6.370;2022-08-19T01:23:48;5.43;;;5.03;;
51943;SDS011;37969;53.132;6.370;2022-08-19T01:26:17;6.28;;;5.68;;
51943;SDS011;37969;53.132;6.370;2022-08-19T01:28:50;9.18;;;8.20;;
51943;SDS011;37969;53.132;6.370;2022-08-19T01:31:17;10.52;;;9.43;;
51943;SDS011;37969;53.132;6.370;2022-08-19T01:33:47;11.43;;;9.30;;
51943;SDS011;37969;53.132;6.370;2022-08-19T01:36:22;11.63;;;10.43;;
51943;SDS011;37969;53.132;6.370;2022-08-19T01:38:53;10.90;;;9.00;;
51943;SDS011;37969;53.132;6.370;2022-08-19T01:41:23;8.15;;;6.70;;
51943;SDS011;37969;53.132;6.370;2022-08-19T01:43:51;11.80;;;7.43;;
51943;SDS011;37969;53.132;6.370;2022-08-19T01:46:18;8.13;;;6.57;;
51943;SDS011;37969;53.132;6.370;2022-08-19T01:48:46;8.30;;;6.47;;
51943;SDS011;37969;53.132;6.370;2022-08-19T01:51:12;7.55;;;6.82;;
51943;SDS011;37969;53.132;6.370;2022-08-19T01:53:39;7.50;;;6.80;;
51943;SDS011;37969;53.132;6.370;2022-08-19T01:56:05;6.53;;;5.93;;
51943;SDS011;37969;53.132;6.370;2022-08-19T01:58:38;7.60;;;6.90;;
51943;SDS011;37969;53.132;6.370;2022-08-19T02:01:07;10.00;;;6.63;;
51943;SDS011;37969;53.132;6.370;2022-08-19T02:03:39;6.90;;;6.20;;
51943;SDS011;37969;53.132;6.370;2022-08-19T02:06:08;7.97;;;6.30;;
51943;SDS011;37969;53.132;6.370;2022-08-19T02:08:35;5.80;;;5.35;;
51943;SDS011;37969;53.132;6.370;2022-08-19T02:11:04;5.03;;;4.53;;
51943;SDS011;37969;53.132;6.370;2022-08-19T02:13:33;6.07;;;5.50;;
51943;SDS011;37969;53.132;6.370;2022-08-19T02:16:05;5.25;;;4.80;;
51943;SDS011;37969;53.132;6.370;2022-08-19T02:18:33;7.03;;;6.43;;
51943;SDS011;37969;53.132;6.370;2022-08-19T02:21:03;9.25;;;7.30;;
51943;SDS011;37969;53.132;6.370;2022-08-19T02:23:31;8.05;;;7.32;;
51943;SDS011;37969;53.132;6.370;2022-08-19T02:25:57;10.32;;;7.75;;
51943;SDS011;37969;53.132;6.370;2022-08-19T02:28:23;8.98;;;7.85;;
51943;SDS011;37969;53.132;6.370;2022-08-19T02:30:49;9.35;;;8.27;;
51943;SDS011;37969;53.132;6.370;2022-08-19T02:33:16;8.80;;;7.85;;
51943;SDS011;37969;53.132;6.370;2022-08-19T02:35:48;9.10;;;8.20;;
51943;SDS011;37969;53.132;6.370;2022-08-19T02:38:19;9.82;;;8.57;;
51943;SDS011;37969;53.132;6.370;2022-08-19T02:40:53;9.20;;;7.75;;
51943;SDS011;37969;53.132;6.370;2022-08-19T02:43:21;9.57;;;8.57;;
51943;SDS011;37969;53.132;6.370;2022-08-19T02:48:20;10.27;;;9.13;;
51943;SDS011;37969;53.132;6.370;2022-08-19T02:50:48;8.77;;;7.75;;
51943;SDS011;37969;53.132;6.370;2022-08-19T02:53:20;7.93;;;6.18;;
51943;SDS011;37969;53.132;6.370;2022-08-19T02:55:51;8.15;;;7.35;;
51943;SDS011;37969;53.132;6.370;2022-08-19T02:58:18;8.43;;;7.63;;
51943;SDS011;37969;53.132;6.370;2022-08-19T03:00:52;6.72;;;6.13;;
51943;SDS011;37969;53.132;6.370;2022-08-19T03:03:20;6.25;;;5.65;;
51943;SDS011;37969;53.132;6.370;2022-08-19T03:05:47;6.80;;;6.15;;
51943;SDS011;37969;53.132;6.370;2022-08-19T03:08:18;8.68;;;7.22;;
51943;SDS011;37969;53.132;6.370;2022-08-19T03:10:45;8.18;;;7.38;;
51943;SDS011;37969;53.132;6.370;2022-08-19T03:13:18;12.07;;;8.63;;
51943;SDS011;37969;53.132;6.370;2022-08-19T03:15:53;11.23;;;9.50;;
51943;SDS011;37969;53.132;6.370;2022-08-19T03:18:24;9.98;;;8.45;;
51943;SDS011;37969;53.132;6.370;2022-08-19T03:20:51;13.77;;;10.23;;
51943;SDS011;37969;53.132;6.370;2022-08-19T03:23:19;12.87;;;9.87;;
51943;SDS011;37969;53.132;6.370;2022-08-19T03:25:48;12.70;;;9.45;;
51943;SDS011;37969;53.132;6.370;2022-08-19T03:28:18;10.02;;;9.02;;
51943;SDS011;37969;53.132;6.370;2022-08-19T03:30:56;9.70;;;8.70;;
51943;SDS011;37969;53.132;6.370;2022-08-19T03:33:24;8.17;;;7.37;;
51943;SDS011;37969;53.132;6.370;2022-08-19T03:36:04;8.30;;;7.45;;
51943;SDS011;37969;53.132;6.370;2022-08-19T03:38:42;7.45;;;6.80;;
51943;SDS011;37969;53.132;6.370;2022-08-19T03:41:10;9.57;;;8.57;;
51943;SDS011;37969;53.132;6.370;2022-08-19T03:43:40;8.68;;;7.47;;
51943;SDS011;37969;53.132;6.370;2022-08-19T03:46:15;8.77;;;7.53;;
51943;SDS011;37969;53.132;6.370;2022-08-19T03:48:43;7.55;;;6.72;;
51943;SDS011;37969;53.132;6.370;2022-08-19T03:51:17;7.90;;;7.10;;
51943;SDS011;37969;53.132;6.370;2022-08-19T03:53:46;9.52;;;8.10;;
51943;SDS011;37969;53.132;6.370;2022-08-19T03:56:13;9.40;;;7.60;;
51943;SDS011;37969;53.132;6.370;2022-08-19T03:58:42;8.00;;;7.10;;
51943;SDS011;37969;53.132;6.370;2022-08-19T04:03:39;10.30;;;9.20;;
51943;SDS011;37969;53.132;6.370;2022-08-19T04:06:13;10.02;;;8.63;;
51943;SDS011;37969;53.132;6.370;2022-08-19T04:08:43;7.78;;;7.07;;
51943;SDS011;37969;53.132;6.370;2022-08-19T04:11:13;8.20;;;7.05;;
51943;SDS011;37969;53.132;6.370;2022-08-19T04:13:39;7.10;;;6.40;;
51943;SDS011;37969;53.132;6.370;2022-08-19T04:16:10;6.75;;;6.15;;
51943;SDS011;37969;53.132;6.370;2022-08-19T04:18:38;7.65;;;6.80;;
51943;SDS011;37969;53.132;6.370;2022-08-19T04:21:07;8.48;;;7.60;;
51943;SDS011;37969;53.132;6.370;2022-08-19T04:23:38;8.80;;;7.18;;
51943;SDS011;37969;53.132;6.370;2022-08-19T04:26:07;9.45;;;8.02;;
51943;SDS011;37969;53.132;6.370;2022-08-19T04:28:39;10.07;;;8.88;;
51943;SDS011;37969;53.132;6.370;2022-08-19T04:31:12;10.45;;;9.13;;
51943;SDS011;37969;53.132;6.370;2022-08-19T04:33:39;10.05;;;9.00;;
51943;SDS011;37969;53.132;6.370;2022-08-19T04:36:17;17.88;;;7.75;;
51943;SDS011;37969;53.132;6.370;2022-08-19T04:38:50;35.80;;;6.70;;
51943;SDS011;37969;53.132;6.370;2022-08-19T04:41:18;56.78;;;8.32;;
51943;SDS011;37969;53.132;6.370;2022-08-19T04:44:05;48.38;;;9.85;;
51943;SDS011;37969;53.132;6.370;2022-08-19T04:46:36;9.60;;;8.45;;
51943;SDS011;37969;53.132;6.370;2022-08-19T04:49:22;9.70;;;8.40;;
51943;SDS011;37969;53.132;6.370;2022-08-19T04:51:51;9.23;;;7.80;;
51943;SDS011;37969;53.132;6.370;2022-08-19T04:54:19;9.35;;;7.95;;
51943;SDS011;37969;53.132;6.370;2022-08-19T04:56:48;7.30;;;6.60;;
51943;SDS011;37969;53.132;6.370;2022-08-19T04:59:23;7.03;;;6.35;;
51943;SDS011;37969;53.132;6.370;2022-08-19T05:01:51;10.82;;;7.65;;
51943;SDS011;37969;53.132;6.370;2022-08-19T05:04:19;7.57;;;6.72;;
51943;SDS011;37969;53.132;6.370;2022-08-19T05:06:46;7.25;;;6.50;;
51943;SDS011;37969;53.132;6.370;2022-08-19T05:09:14;9.57;;;8.23;;
51943;SDS011;37969;53.132;6.370;2022-08-19T05:11:51;9.23;;;8.18;;
51943;SDS011;37969;53.132;6.370;2022-08-19T05:14:18;12.10;;;8.73;;
51943;SDS011;37969;53.132;6.370;2022-08-19T05:16:48;9.75;;;8.52;;
51943;SDS011;37969;53.132;6.370;2022-08-19T05:19:17;11.48;;;8.85;;
51943;SDS011;37969;53.132;6.370;2022-08-19T05:22:02;11.23;;;8.82;;
51943;SDS011;37969;53.132;6.370;2022-08-19T05:24:47;11.27;;;9.13;;
51943;SDS011;37969;53.132;6.370;2022-08-19T05:27:21;9.00;;;8.07;;
51943;SDS011;37969;53.132;6.370;2022-08-19T05:29:49;9.27;;;7.97;;
51943;SDS011;37969;53.132;6.370;2022-08-19T05:32:16;8.63;;;7.82;;
51943;SDS011;37969;53.132;6.370;2022-08-19T05:34:46;8.75;;;7.60;;
51943;SDS011;37969;53.132;6.370;2022-08-19T05:37:18;8.75;;;7.85;;
51943;SDS011;37969;53.132;6.370;2022-08-19T05:39:45;14.63;;;10.00;;
51943;SDS011;37969;53.132;6.370;2022-08-19T05:42:17;12.63;;;10.32;;
51943;SDS011;37969;53.132;6.370;2022-08-19T05:44:45;12.25;;;10.82;;
51943;SDS011;37969;53.132;6.370;2022-08-19T05:47:15;18.38;;;13.68;;
51943;SDS011;37969;53.132;6.370;2022-08-19T05:49:41;16.75;;;13.98;;
51943;SDS011;37969;53.132;6.370;2022-08-19T05:52:15;19.08;;;14.63;;
51943;SDS011;37969;53.132;6.370;2022-08-19T05:54:41;20.17;;;16.27;;
51943;SDS011;37969;53.132;6.370;2022-08-19T05:57:10;24.13;;;15.80;;
51943;SDS011;37969;53.132;6.370;2022-08-19T05:59:37;25.65;;;16.67;;
51943;SDS011;37969;53.132;6.370;2022-08-19T06:02:05;22.45;;;16.77;;
51943;SDS011;37969;53.132;6.370;2022-08-19T06:04:33;21.10;;;16.52;;
51943;SDS011;37969;53.132;6.370;2022-08-19T06:07:04;20.48;;;16.85;;
51943;SDS011;37969;53.132;6.370;2022-08-19T06:09:31;22.80;;;17.52;;
51943;SDS011;37969;53.132;6.370;2022-08-19T06:11:58;18.50;;;16.10;;
51943;SDS011;37969;53.132;6.370;2022-08-19T06:14:29;22.27;;;17.80;;
51943;SDS011;37969;53.132;6.370;2022-08-19T06:16:56;22.17;;;17.42;;
51943;SDS011;37969;53.132;6.370;2022-08-19T06:19:26;28.25;;;18.38;;
51943;SDS011;37969;53.132;6.370;2022-08-19T06:21:57;20.88;;;17.48;;
51943;SDS011;37969;53.132;6.370;2022-08-19T06:24:27;25.83;;;19.02;;
51943;SDS011;37969;53.132;6.370;2022-08-19T06:26:54;22.77;;;17.85;;
51943;SDS011;37969;53.132;6.370;2022-08-19T06:29:22;21.33;;;17.50;;
51943;SDS011;37969;53.132;6.370;2022-08-19T06:31:49;21.50;;;17.27;;
51943;SDS011;37969;53.132;6.370;2022-08-19T06:34:19;22.70;;;17.55;;
51943;SDS011;37969;53.132;6.370;2022-08-19T06:36:47;22.13;;;17.40;;
51943;SDS011;37969;53.132;6.370;2022-08-19T06:39:17;23.55;;;17.45;;
51943;SDS011;37969;53.132;6.370;2022-08-19T06:41:50;22.63;;;17.55;;
51943;SDS011;37969;53.132;6.370;2022-08-19T06:44:17;19.90;;;17.08;;
51943;SDS011;37969;53.132;6.370;2022-08-19T06:46:43;23.33;;;18.25;;
51943;SDS011;37969;53.132;6.370;2022-08-19T06:49:10;18.58;;;16.45;;
51943;SDS011;37969;53.132;6.370;2022-08-19T06:51:39;21.65;;;17.13;;
51943;SDS011;37969;53.132;6.370;2022-08-19T06:54:07;20.90;;;17.05;;
51943;SDS011;37969;53.132;6.370;2022-08-19T06:56:36;20.90;;;17.23;;
51943;SDS011;37969;53.132;6.370;2022-08-19T07:01:39;20.35;;;16.35;;
51943;SDS011;37969;53.132;6.370;2022-08-19T07:04:08;18.40;;;16.25;;
51943;SDS011;37969;53.132;6.370;2022-08-19T07:06:36;19.02;;;16.75;;
51943;SDS011;37969;53.132;6.370;2022-08-19T07:09:09;21.02;;;16.17;;
51943;SDS011;37969;53.132;6.370;2022-08-19T07:11:36;21.67;;;17.55;;
51943;SDS011;37969;53.132;6.370;2022-08-19T07:14:08;22.70;;;16.83;;
51943;SDS011;37969;53.132;6.370;2022-08-19T07:19:07;20.50;;;16.95;;
51943;SDS011;37969;53.132;6.370;2022-08-19T07:21:33;24.00;;;17.05;;
51943;SDS011;37969;53.132;6.370;2022-08-19T07:24:06;20.85;;;16.13;;
51943;SDS011;37969;53.132;6.370;2022-08-19T07:26:39;22.42;;;16.70;;
51943;SDS011;37969;53.132;6.370;2022-08-19T07:29:06;21.27;;;17.20;;
51943;SDS011;37969;53.132;6.370;2022-08-19T07:31:32;20.25;;;17.00;;
51943;SDS011;37969;53.132;6.370;2022-08-19T07:34:02;22.13;;;17.13;;
51943;SDS011;37969;53.132;6.370;2022-08-19T07:36:31;17.20;;;15.48;;
51943;SDS011;37969;53.132;6.370;2022-08-19T07:39:00;20.70;;;16.10;;
51943;SDS011;37969;53.132;6.370;2022-08-19T07:41:27;21.88;;;17.00;;
51943;SDS011;37969;53.132;6.370;2022-08-19T07:43:56;17.98;;;15.50;;
51943;SDS011;37969;53.132;6.370;2022-08-19T07:46:29;17.58;;;15.80;;
51943;SDS011;37969;53.132;6.370;2022-08-19T07:48:56;18.92;;;14.57;;
51943;SDS011;37969;53.132;6.370;2022-08-19T07:51:23;15.68;;;13.98;;
51943;SDS011;37969;53.132;6.370;2022-08-19T07:53:55;15.98;;;14.23;;
51943;SDS011;37969;53.132;6.370;2022-08-19T07:56:21;16.60;;;14.90;;
51943;SDS011;37969;53.132;6.370;2022-08-19T07:58:48;22.10;;;14.50;;
51943;SDS011;37969;53.132;6.370;2022-08-19T08:01:18;17.02;;;14.80;;
51943;SDS011;37969;53.132;6.370;2022-08-19T08:03:45;16.50;;;14.25;;
51943;SDS011;37969;53.132;6.370;2022-08-19T08:06:34;17.63;;;14.77;;
51943;SDS011;37969;53.132;6.370;2022-08-19T08:09:23;17.73;;;14.77;;
51943;SDS011;37969;53.132;6.370;2022-08-19T08:14:21;16.00;;;13.70;;
51943;SDS011;37969;53.132;6.370;2022-08-19T08:16:48;17.33;;;14.60;;
51943;SDS011;37969;53.132;6.370;2022-08-19T08:19:18;16.98;;;14.32;;
51943;SDS011;37969;53.132;6.370;2022-08-19T08:21:45;14.48;;;12.98;;
51943;SDS011;37969;53.132;6.370;2022-08-19T08:24:12;14.20;;;12.80;;
51943;SDS011;37969;53.132;6.370;2022-08-19T08:26:39;15.25;;;13.52;;
51943;SDS011;37969;53.132;6.370;2022-08-19T08:29:10;16.17;;;13.85;;
51943;SDS011;37969;53.132;6.370;2022-08-19T08:31:39;14.95;;;13.27;;
51943;SDS011;37969;53.132;6.370;2022-08-19T08:34:07;13.73;;;12.38;;
51943;SDS011;37969;53.132;6.370;2022-08-19T08:36:37;17.38;;;13.55;;
51943;SDS011;37969;53.132;6.370;2022-08-19T08:39:08;18.27;;;14.13;;
51943;SDS011;37969;53.132;6.370;2022-08-19T08:41:44;16.50;;;14.02;;
51943;SDS011;37969;53.132;6.370;2022-08-19T08:44:19;14.32;;;12.82;;
51943;SDS011;37969;53.132;6.370;2022-08-19T08:46:50;16.00;;;14.40;;
51943;SDS011;37969;53.132;6.370;2022-08-19T08:51:48;14.85;;;13.40;;
51943;SDS011;37969;53.132;6.370;2022-08-19T08:54:20;17.92;;;15.10;;
51943;SDS011;37969;53.132;6.370;2022-08-19T08:56:49;18.13;;;15.20;;
51943;SDS011;37969;53.132;6.370;2022-08-19T09:01:46;15.05;;;13.55;;
51943;SDS011;37969;53.132;6.370;2022-08-19T09:04:17;17.98;;;15.88;;
51943;SDS011;37969;53.132;6.370;2022-08-19T09:06:51;17.20;;;15.40;;
51943;SDS011;37969;53.132;6.370;2022-08-19T09:09:25;16.90;;;15.25;;
51943;SDS011;37969;53.132;6.370;2022-08-19T09:12:05;17.95;;;15.77;;
51943;SDS011;37969;53.132;6.370;2022-08-19T09:14:42;16.02;;;14.35;;
51943;SDS011;37969;53.132;6.370;2022-08-19T09:17:10;16.23;;;14.52;;
51943;SDS011;37969;53.132;6.370;2022-08-19T09:19:46;16.20;;;14.70;;
51943;SDS011;37969;53.132;6.370;2022-08-19T09:22:14;17.02;;;15.35;;
51943;SDS011;37969;53.132;6.370;2022-08-19T09:24:40;17.48;;;15.77;;
51943;SDS011;37969;53.132;6.370;2022-08-19T09:27:13;18.38;;;16.30;;
51943;SDS011;37969;53.132;6.370;2022-08-19T09:29:39;17.10;;;15.30;;
51943;SDS011;37969;53.132;6.370;2022-08-19T09:32:07;17.08;;;15.48;;
51943;SDS011;37969;53.132;6.370;2022-08-19T09:34:33;17.27;;;15.13;;
51943;SDS011;37969;53.132;6.370;2022-08-19T09:37:01;15.60;;;13.93;;
51943;SDS011;37969;53.132;6.370;2022-08-19T09:39:31;16.38;;;14.77;;
51943;SDS011;37969;53.132;6.370;2022-08-19T09:42:00;15.85;;;13.07;;
51943;SDS011;37969;53.132;6.370;2022-08-19T09:44:34;14.98;;;13.52;;
51943;SDS011;37969;53.132;6.370;2022-08-19T09:47:00;14.32;;;12.77;;
51943;SDS011;37969;53.132;6.370;2022-08-19T09:49:27;15.52;;;14.02;;
51943;SDS011;37969;53.132;6.370;2022-08-19T09:51:54;18.13;;;16.20;;
51943;SDS011;37969;53.132;6.370;2022-08-19T09:54:27;16.73;;;15.10;;
51943;SDS011;37969;53.132;6.370;2022-08-19T09:56:54;16.08;;;14.40;;
51943;SDS011;37969;53.132;6.370;2022-08-19T09:59:20;15.15;;;13.63;;
51943;SDS011;37969;53.132;6.370;2022-08-19T10:01:47;16.35;;;14.65;;
51943;SDS011;37969;53.132;6.370;2022-08-19T10:04:16;16.05;;;14.55;;
51943;SDS011;37969;53.132;6.370;2022-08-19T10:06:42;17.60;;;15.75;;
51943;SDS011;37969;53.132;6.370;2022-08-19T10:09:20;17.00;;;15.40;;
51943;SDS011;37969;53.132;6.370;2022-08-19T10:11:51;18.77;;;16.98;;
51943;SDS011;37969;53.132;6.370;2022-08-19T10:14:19;21.17;;;17.20;;
51943;SDS011;37969;53.132;6.370;2022-08-19T10:16:48;18.83;;;17.10;;
51943;SDS011;37969;53.132;6.370;2022-08-19T10:19:17;19.63;;;17.73;;
51943;SDS011;37969;53.132;6.370;2022-08-19T10:21:49;21.48;;;19.30;;
51943;SDS011;37969;53.132;6.370;2022-08-19T10:24:16;20.73;;;17.85;;
51943;SDS011;37969;53.132;6.370;2022-08-19T10:26:49;21.00;;;18.60;;
51943;SDS011;37969;53.132;6.370;2022-08-19T10:29:15;19.42;;;17.52;;
51943;SDS011;37969;53.132;6.370;2022-08-19T10:31:45;19.63;;;17.60;;
51943;SDS011;37969;53.132;6.370;2022-08-19T10:34:13;19.80;;;17.70;;
51943;SDS011;37969;53.132;6.370;2022-08-19T10:36:45;20.42;;;17.13;;
51943;SDS011;37969;53.132;6.370;2022-08-19T10:39:12;17.95;;;16.25;;
51943;SDS011;37969;53.132;6.370;2022-08-19T10:41:41;20.92;;;18.42;;
51943;SDS011;37969;53.132;6.370;2022-08-19T10:44:09;19.63;;;17.63;;
51943;SDS011;37969;53.132;6.370;2022-08-19T10:46:36;19.25;;;16.33;;
51943;SDS011;37969;53.132;6.370;2022-08-19T10:49:03;19.88;;;17.80;;
51943;SDS011;37969;53.132;6.370;2022-08-19T10:51:31;17.83;;;15.93;;
51943;SDS011;37969;53.132;6.370;2022-08-19T10:54:20;19.55;;;17.52;;
51943;SDS011;37969;53.132;6.370;2022-08-19T10:56:46;18.20;;;16.30;;
51943;SDS011;37969;53.132;6.370;2022-08-19T10:59:19;18.75;;;16.77;;
51943;SDS011;37969;53.132;6.370;2022-08-19T11:01:52;17.65;;;15.02;;
51943;SDS011;37969;53.132;6.370;2022-08-19T11:04:20;16.40;;;13.30;;
51943;SDS011;37969;53.132;6.370;2022-08-19T11:06:48;14.18;;;12.88;;
51943;SDS011;37969;53.132;6.370;2022-08-19T11:09:15;12.90;;;11.60;;
51943;SDS011;37969;53.132;6.370;2022-08-19T11:11:42;10.27;;;9.13;;
51943;SDS011;37969;53.132;6.370;2022-08-19T11:14:10;14.75;;;11.40;;
51943;SDS011;37969;53.132;6.370;2022-08-19T11:16:41;16.65;;;12.68;;
51943;SDS011;37969;53.132;6.370;2022-08-19T11:21:39;14.10;;;11.40;;
51943;SDS011;37969;53.132;6.370;2022-08-19T11:24:07;14.15;;;12.65;;
51943;SDS011;37969;53.132;6.370;2022-08-19T11:26:34;11.85;;;10.75;;
51943;SDS011;37969;53.132;6.370;2022-08-19T11:29:01;14.35;;;11.38;;
51943;SDS011;37969;53.132;6.370;2022-08-19T11:31:29;13.75;;;12.30;;
51943;SDS011;37969;53.132;6.370;2022-08-19T11:33:57;13.00;;;11.68;;
51943;SDS011;37969;53.132;6.370;2022-08-19T11:36:26;14.75;;;11.52;;
51943;SDS011;37969;53.132;6.370;2022-08-19T11:38:57;12.85;;;10.80;;
51943;SDS011;37969;53.132;6.370;2022-08-19T11:41:25;14.55;;;11.73;;
51943;SDS011;37969;53.132;6.370;2022-08-19T11:43:52;12.70;;;11.40;;
51943;SDS011;37969;53.132;6.370;2022-08-19T11:46:21;16.60;;;12.13;;
51943;SDS011;37969;53.132;6.370;2022-08-19T11:48:50;13.68;;;11.07;;
51943;SDS011;37969;53.132;6.370;2022-08-19T11:51:20;12.10;;;10.90;;
51943;SDS011;37969;53.132;6.370;2022-08-19T11:53:50;11.75;;;10.57;;
51943;SDS011;37969;53.132;6.370;2022-08-19T11:56:28;13.10;;;11.85;;
51943;SDS011;37969;53.132;6.370;2022-08-19T11:58:59;12.70;;;10.57;;
51943;SDS011;37969;53.132;6.370;2022-08-19T12:01:26;15.48;;;13.13;;
51943;SDS011;37969;53.132;6.370;2022-08-19T12:03:53;13.35;;;11.48;;
51943;SDS011;37969;53.132;6.370;2022-08-19T12:06:21;11.98;;;10.77;;
51943;SDS011;37969;53.132;6.370;2022-08-19T12:08:54;17.00;;;12.98;;
51943;SDS011;37969;53.132;6.370;2022-08-19T12:11:28;17.85;;;11.75;;
51943;SDS011;37969;53.132;6.370;2022-08-19T12:13:54;16.85;;;10.93;;
51943;SDS011;37969;53.132;6.370;2022-08-19T12:16:25;14.23;;;9.43;;
51943;SDS011;37969;53.132;6.370;2022-08-19T12:18:52;14.85;;;10.32;;
51943;SDS011;37969;53.132;6.370;2022-08-19T12:21:20;15.25;;;12.63;;
51943;SDS011;37969;53.132;6.370;2022-08-19T12:23:54;13.95;;;12.20;;
51943;SDS011;37969;53.132;6.370;2022-08-19T12:26:24;14.40;;;10.88;;
51943;SDS011;37969;53.132;6.370;2022-08-19T12:28:56;13.13;;;10.18;;
51943;SDS011;37969;53.132;6.370;2022-08-19T12:31:30;10.68;;;9.40;;
51943;SDS011;37969;53.132;6.370;2022-08-19T12:34:00;15.55;;;9.60;;
51943;SDS011;37969;53.132;6.370;2022-08-19T12:36:27;13.07;;;9.75;;
51943;SDS011;37969;53.132;6.370;2022-08-19T12:38:59;14.88;;;10.05;;
51943;SDS011;37969;53.132;6.370;2022-08-19T12:41:25;12.07;;;10.15;;
51943;SDS011;37969;53.132;6.370;2022-08-19T12:43:54;14.80;;;10.13;;
51943;SDS011;37969;53.132;6.370;2022-08-19T12:46:21;14.13;;;12.13;;
51943;SDS011;37969;53.132;6.370;2022-08-19T12:48:47;20.42;;;12.60;;
51943;SDS011;37969;53.132;6.370;2022-08-19T12:51:21;17.65;;;14.77;;
51943;SDS011;37969;53.132;6.370;2022-08-19T12:53:47;20.98;;;15.95;;
51943;SDS011;37969;53.132;6.370;2022-08-19T12:56:15;22.55;;;17.35;;
51943;SDS011;37969;53.132;6.370;2022-08-19T12:58:42;25.77;;;17.75;;
51943;SDS011;37969;53.132;6.370;2022-08-19T13:01:09;24.10;;;18.08;;
51943;SDS011;37969;53.132;6.370;2022-08-19T13:03:36;21.80;;;17.35;;
51943;SDS011;37969;53.132;6.370;2022-08-19T13:06:10;19.67;;;15.27;;
51943;SDS011;37969;53.132;6.370;2022-08-19T13:08:36;25.10;;;16.85;;
51943;SDS011;37969;53.132;6.370;2022-08-19T13:11:07;15.55;;;13.88;;
51943;SDS011;37969;53.132;6.370;2022-08-19T13:13:37;15.93;;;13.07;;
51943;SDS011;37969;53.132;6.370;2022-08-19T13:16:05;15.85;;;11.93;;
51943;SDS011;37969;53.132;6.370;2022-08-19T13:18:36;17.50;;;13.85;;
51943;SDS011;37969;53.132;6.370;2022-08-19T13:21:06;15.15;;;12.80;;
51943;SDS011;37969;53.132;6.370;2022-08-19T13:23:33;17.77;;;13.55;;
51943;SDS011;37969;53.132;6.370;2022-08-19T13:26:02;19.25;;;12.90;;
51943;SDS011;37969;53.132;6.370;2022-08-19T13:28:30;20.90;;;14.77;;
51943;SDS011;37969;53.132;6.370;2022-08-19T13:31:17;22.92;;;14.18;;
51943;SDS011;37969;53.132;6.370;2022-08-19T13:34:03;21.80;;;13.73;;
51943;SDS011;37969;53.132;6.370;2022-08-19T13:36:31;20.60;;;14.68;;
51943;SDS011;37969;53.132;6.370;2022-08-19T13:39:00;22.98;;;15.23;;
51943;SDS011;37969;53.132;6.370;2022-08-19T13:41:28;20.13;;;15.63;;
51943;SDS011;37969;53.132;6.370;2022-08-19T13:43:56;22.70;;;15.43;;
51943;SDS011;37969;53.132;6.370;2022-08-19T13:46:27;22.20;;;15.32;;
51943;SDS011;37969;53.132;6.370;2022-08-19T13:48:58;18.90;;;15.85;;
51943;SDS011;37969;53.132;6.370;2022-08-19T13:51:27;23.27;;;14.95;;
51943;SDS011;37969;53.132;6.370;2022-08-19T13:53:57;21.05;;;14.85;;
51943;SDS011;37969;53.132;6.370;2022-08-19T13:56:29;21.40;;;15.25;;
51943;SDS011;37969;53.132;6.370;2022-08-19T13:58:55;24.63;;;17.33;;
51943;SDS011;37969;53.132;6.370;2022-08-19T14:01:23;22.73;;;15.13;;
51943;SDS011;37969;53.132;6.370;2022-08-19T14:03:51;26.73;;;19.42;;
51943;SDS011;37969;53.132;6.370;2022-08-19T14:06:20;26.57;;;19.57;;
51943;SDS011;37969;53.132;6.370;2022-08-19T14:08:47;24.25;;;17.92;;
51943;SDS011;37969;53.132;6.370;2022-08-19T14:11:14;22.20;;;15.77;;
51943;SDS011;37969;53.132;6.370;2022-08-19T14:13:48;19.50;;;14.88;;
51943;SDS011;37969;53.132;6.370;2022-08-19T14:16:14;17.90;;;14.68;;
51943;SDS011;37969;53.132;6.370;2022-08-19T14:18:40;16.70;;;13.30;;
51943;SDS011;37969;53.132;6.370;2022-08-19T14:21:07;19.05;;;13.95;;
51943;SDS011;37969;53.132;6.370;2022-08-19T14:23:36;16.83;;;13.43;;
51943;SDS011;37969;53.132;6.370;2022-08-19T14:26:04;22.90;;;14.90;;
51943;SDS011;37969;53.132;6.370;2022-08-19T14:28:30;25.60;;;17.17;;
51943;SDS011;37969;53.132;6.370;2022-08-19T14:30:59;23.17;;;17.15;;
51943;SDS011;37969;53.132;6.370;2022-08-19T14:33:25;25.90;;;17.67;;
51943;SDS011;37969;53.132;6.370;2022-08-19T14:35:51;20.00;;;15.75;;
51943;SDS011;37969;53.132;6.370;2022-08-19T14:38:19;21.33;;;15.93;;
51943;SDS011;37969;53.132;6.370;2022-08-19T14:40:48;21.13;;;15.27;;
51943;SDS011;37969;53.132;6.370;2022-08-19T14:43:17;18.77;;;14.95;;
51943;SDS011;37969;53.132;6.370;2022-08-19T14:45:44;18.80;;;13.15;;
51943;SDS011;37969;53.132;6.370;2022-08-19T14:48:13;12.98;;;9.27;;
51943;SDS011;37969;53.132;6.370;2022-08-19T14:50:46;6.28;;;5.50;;
51943;SDS011;37969;53.132;6.370;2022-08-19T14:53:17;7.95;;;4.97;;
51943;SDS011;37969;53.132;6.370;2022-08-19T14:55:44;5.40;;;3.95;;
51943;SDS011;37969;53.132;6.370;2022-08-19T14:58:15;5.22;;;4.05;;
51943;SDS011;37969;53.132;6.370;2022-08-19T15:00:42;4.32;;;3.80;;
51943;SDS011;37969;53.132;6.370;2022-08-19T15:03:13;3.85;;;3.13;;
51943;SDS011;37969;53.132;6.370;2022-08-19T15:05:39;4.07;;;3.67;;
51943;SDS011;37969;53.132;6.370;2022-08-19T15:08:05;5.38;;;4.40;;